createdAt,value
2022-08-17T00:00:44.112Z,61.45
2022-08-17T00:03:17.916Z,61.58
2022-08-17T00:05:52.170Z,61.51
2022-08-17T00:08:23.558Z,61.35
2022-08-17T00:10:53.747Z,61.65
2022-08-17T00:13:26.315Z,61.65
2022-08-17T00:15:59.962Z,61.58
2022-08-17T00:19:06.830Z,61.64
2022-08-17T00:21:25.342Z,61.66
2022-08-17T00:23:55.456Z,61.85
2022-08-17T00:26:44.303Z,61.68
2022-08-17T00:29:19.978Z,61.92
2022-08-17T00:31:50.177Z,61.88
2022-08-17T00:34:19.758Z,61.83
2022-08-17T00:36:50.324Z,62.14
2022-08-17T00:39:19.508Z,62.25
2022-08-17T00:41:48.683Z,62.15
2022-08-17T00:44:17.756Z,62.26
2022-08-17T00:46:47.938Z,61.67
2022-08-17T00:49:19.626Z,62.12
2022-08-17T00:51:54.382Z,62.19
2022-08-17T00:54:28.046Z,62.47
2022-08-17T00:57:00.968Z,62.26
2022-08-17T00:59:38.718Z,62.49
2022-08-17T01:02:10.279Z,62.49
2022-08-17T01:04:39.855Z,62.63
2022-08-17T01:07:11.301Z,62.43
2022-08-17T01:09:41.542Z,62.51
2022-08-17T01:12:12.199Z,62.58
2022-08-17T01:14:42.025Z,62.73
2022-08-17T01:17:11.428Z,62.43
2022-08-17T01:19:42.668Z,62.58
2022-08-17T01:22:21.929Z,62.40
2022-08-17T01:24:53.700Z,62.48
2022-08-17T01:27:23.318Z,62.87
2022-08-17T01:29:58.646Z,63.00
2022-08-17T01:32:30.393Z,63.20
2022-08-17T01:35:00.741Z,63.13
2022-08-17T01:37:34.688Z,63.22
2022-08-17T01:40:07.625Z,63.08
2022-08-17T01:42:41.301Z,63.10
2022-08-17T01:45:13.416Z,63.12
2022-08-17T01:47:42.901Z,63.04
2022-08-17T01:50:16.011Z,63.23
2022-08-17T01:52:49.290Z,63.38
2022-08-17T01:55:27.212Z,63.02
2022-08-17T01:57:58.157Z,63.42
2022-08-17T02:00:51.760Z,63.17
2022-08-17T02:03:18.857Z,63.20
2022-08-17T02:05:48.527Z,62.82
2022-08-17T02:08:20.698Z,63.36
2022-08-17T02:11:11.235Z,63.01
2022-08-17T02:13:40.887Z,63.38
2022-08-17T02:16:10.359Z,63.23
2022-08-17T02:18:39.571Z,63.04
2022-08-17T02:21:09.572Z,63.01
2022-08-17T02:23:43.161Z,63.26
2022-08-17T02:26:25.591Z,62.95
2022-08-17T02:28:56.010Z,62.64
2022-08-17T02:31:24.837Z,61.94
2022-08-17T02:34:03.280Z,62.20
2022-08-17T02:36:35.610Z,62.74
2022-08-17T02:39:07.839Z,62.84
2022-08-17T02:41:37.693Z,63.00
2022-08-17T02:44:07.596Z,62.76
2022-08-17T02:46:37.252Z,62.61
2022-08-17T02:49:06.903Z,62.84
2022-08-17T02:51:36.362Z,62.63
2022-08-17T02:54:40.104Z,62.42
2022-08-17T02:56:56.589Z,62.46
2022-08-17T02:59:25.767Z,62.69
2022-08-17T03:01:54.582Z,62.54
2022-08-17T03:04:24.363Z,63.22
2022-08-17T03:06:53.298Z,62.80
2022-08-17T03:09:23.637Z,62.71
2022-08-17T03:11:53.161Z,62.85
2022-08-17T03:14:26.088Z,63.00
2022-08-17T03:16:55.669Z,63.37
2022-08-17T03:19:24.614Z,63.19
2022-08-17T03:21:55.359Z,63.26
2022-08-17T03:24:28.729Z,63.17
2022-08-17T03:26:58.177Z,63.59
2022-08-17T03:29:27.439Z,63.61
2022-08-17T03:31:56.441Z,63.62
2022-08-17T03:34:25.198Z,63.41
2022-08-17T03:36:54.561Z,63.97
2022-08-17T03:39:25.266Z,63.86
2022-08-17T03:41:54.372Z,63.94
2022-08-17T03:44:23.361Z,63.65
2022-08-17T03:47:09.831Z,64.17
2022-08-17T03:49:56.322Z,64.06
2022-08-17T03:52:42.905Z,64.02
2022-08-17T03:55:35.810Z,64.08
2022-08-17T03:58:05.729Z,64.09
2022-08-17T04:00:39.767Z,64.20
2022-08-17T04:03:09.148Z,64.11
2022-08-17T04:05:38.447Z,64.34
2022-08-17T04:08:09.856Z,64.57
2022-08-17T04:10:44.994Z,64.66
2022-08-17T04:13:14.921Z,64.59
2022-08-17T04:15:53.470Z,64.51
2022-08-17T04:18:22.220Z,64.20
2022-08-17T04:20:51.268Z,64.85
2022-08-17T04:23:20.925Z,64.82
2022-08-17T04:25:53.288Z,64.70
2022-08-17T04:28:22.630Z,65.22
2022-08-17T04:30:51.949Z,64.76
2022-08-17T04:33:24.123Z,65.08
2022-08-17T04:35:56.023Z,65.00
2022-08-17T04:38:27.203Z,64.94
2022-08-17T04:41:15.723Z,65.09
2022-08-17T04:43:46.488Z,65.05
2022-08-17T04:46:17.626Z,65.33
2022-08-17T04:48:49.152Z,65.46
2022-08-17T04:51:21.058Z,65.76
2022-08-17T04:53:54.138Z,66.03
2022-08-17T04:56:27.211Z,65.88
2022-08-17T04:58:59.465Z,66.28
2022-08-17T05:01:33.121Z,66.42
2022-08-17T05:04:33.518Z,66.16
2022-08-17T05:06:56.155Z,66.45
2022-08-17T05:09:25.262Z,66.40
2022-08-17T05:11:56.379Z,66.25
2022-08-17T05:14:32.900Z,66.25
2022-08-17T05:17:09.412Z,66.36
2022-08-17T05:19:41.274Z,66.24
2022-08-17T05:22:10.506Z,66.62
2022-08-17T05:24:43.582Z,66.14
2022-08-17T05:27:23.978Z,66.71
2022-08-17T05:29:54.515Z,66.68
2022-08-17T05:32:38.804Z,66.53
2022-08-17T05:35:10.189Z,66.73
2022-08-17T05:37:39.467Z,66.50
2022-08-17T05:40:10.139Z,66.27
2022-08-17T05:42:40.800Z,66.64
2022-08-17T05:45:11.996Z,66.16
2022-08-17T05:47:42.060Z,66.07
2022-08-17T05:50:18.053Z,66.45
2022-08-17T05:52:57.186Z,66.32
2022-08-17T05:55:36.042Z,66.32
2022-08-17T05:58:21.301Z,66.16
2022-08-17T06:00:58.911Z,66.38
2022-08-17T06:03:43.926Z,66.29
2022-08-17T06:06:31.845Z,66.35
2022-08-17T06:09:27.595Z,66.25
2022-08-17T06:12:04.508Z,66.16
2022-08-17T06:14:54.700Z,66.26
2022-08-17T06:17:28.094Z,66.66
2022-08-17T06:20:00.303Z,67.02
2022-08-17T06:22:34.548Z,67.29
2022-08-17T06:25:10.326Z,67.48
2022-08-17T06:27:45.063Z,67.79
2022-08-17T06:30:18.965Z,67.73
2022-08-17T06:32:51.163Z,67.57
2022-08-17T06:35:34.065Z,67.77
2022-08-17T06:38:33.944Z,67.95
2022-08-17T06:41:15.637Z,67.78
2022-08-17T06:44:06.912Z,67.57
2022-08-17T06:46:40.509Z,67.50
2022-08-17T06:49:26.733Z,67.24
2022-08-17T06:52:02.349Z,67.43
2022-08-17T06:54:40.009Z,67.22
2022-08-17T06:57:18.916Z,67.35
2022-08-17T06:59:55.456Z,66.95
2022-08-17T07:03:02.792Z,66.94
2022-08-17T07:05:33.944Z,66.75
2022-08-17T07:08:09.339Z,66.63
2022-08-17T07:10:43.803Z,66.62
2022-08-17T07:13:29.554Z,66.28
2022-08-17T07:16:13.231Z,66.21
2022-08-17T07:18:44.154Z,65.93
2022-08-17T07:21:27.187Z,65.70
2022-08-17T07:28:20.805Z,65.57
2022-08-17T07:31:08.393Z,65.27
2022-08-17T07:33:39.736Z,65.22
2022-08-17T07:36:29.784Z,64.91
2022-08-17T07:38:59.837Z,64.95
2022-08-17T07:41:53.159Z,64.90
2022-08-17T07:44:19.931Z,64.96
2022-08-17T07:47:12.094Z,64.61
2022-08-17T07:49:44.752Z,64.39
2022-08-17T07:52:47.931Z,64.34
2022-08-17T07:55:30.686Z,64.01
2022-08-17T07:58:00.965Z,64.10
2022-08-17T08:00:31.974Z,63.90
2022-08-17T08:03:13.351Z,64.26
2022-08-17T08:05:53.110Z,63.96
2022-08-17T08:08:29.622Z,63.99
2022-08-17T08:11:29.188Z,64.03
2022-08-17T08:14:17.676Z,63.87
2022-08-17T08:16:59.089Z,63.62
2022-08-17T08:19:31.399Z,63.66
2022-08-17T08:22:06.862Z,63.71
2022-08-17T08:24:55.483Z,63.45
2022-08-17T08:27:38.604Z,63.54
2022-08-17T08:30:14.191Z,63.47
2022-08-17T08:32:57.229Z,63.15
2022-08-17T08:35:32.852Z,63.24
2022-08-17T08:38:11.926Z,63.00
2022-08-17T08:40:54.135Z,63.29
2022-08-17T08:43:36.253Z,63.29
2022-08-17T08:46:19.682Z,62.73
2022-08-17T08:50:02.038Z,63.05
2022-08-17T08:52:43.551Z,62.63
2022-08-17T08:55:20.168Z,62.91
2022-08-17T08:57:53.598Z,62.77
2022-08-17T09:00:25.968Z,62.46
2022-08-17T09:03:51.222Z,62.22
2022-08-17T09:06:39.000Z,62.31
2022-08-17T09:09:24.680Z,62.08
2022-08-17T09:12:05.793Z,62.07
2022-08-17T09:14:45.048Z,62.13
2022-08-17T09:17:20.293Z,62.19
2022-08-17T09:19:55.681Z,61.82
2022-08-17T09:22:35.230Z,62.04
2022-08-17T09:25:11.219Z,62.00
2022-08-17T09:27:52.079Z,61.97
2022-08-17T09:30:23.819Z,61.91
2022-08-17T09:32:57.543Z,61.68
2022-08-17T09:35:37.103Z,61.70
2022-08-17T09:38:17.213Z,61.20
2022-08-17T09:40:52.994Z,61.29
2022-08-17T09:43:32.643Z,61.51
2022-08-17T09:46:09.019Z,61.55
2022-08-17T09:48:42.920Z,61.57
2022-08-17T09:51:17.100Z,61.00
2022-08-17T09:53:46.442Z,61.28
2022-08-17T09:56:48.262Z,60.87
2022-08-17T09:59:38.525Z,61.01
2022-08-17T10:02:36.100Z,61.21
2022-08-17T10:05:08.859Z,60.88
2022-08-17T10:07:44.774Z,60.70
2022-08-17T10:10:20.513Z,60.64
2022-08-17T10:12:57.952Z,60.54
2022-08-17T10:15:38.078Z,60.98
2022-08-17T10:18:31.922Z,60.90
2022-08-17T10:21:24.282Z,60.51
2022-08-17T10:24:18.648Z,60.53
2022-08-17T10:26:56.713Z,60.17
2022-08-17T10:29:47.292Z,60.20
2022-08-17T10:32:28.245Z,60.21
2022-08-17T10:35:16.686Z,60.18
2022-08-17T10:38:07.542Z,59.98
2022-08-17T10:40:46.397Z,59.79
2022-08-17T10:43:29.297Z,60.05
2022-08-17T10:46:30.495Z,59.62
2022-08-17T10:49:15.266Z,59.90
2022-08-17T10:51:45.961Z,59.64
2022-08-17T10:54:50.714Z,59.48
2022-08-17T10:57:43.150Z,59.83
2022-08-17T11:00:32.281Z,59.42
2022-08-17T11:03:03.388Z,59.45
2022-08-17T11:05:50.358Z,59.54
2022-08-17T11:08:38.788Z,59.46
2022-08-17T11:11:35.910Z,59.38
2022-08-17T11:14:23.974Z,59.12
2022-08-17T11:17:02.018Z,59.34
2022-08-17T11:19:58.148Z,59.08
2022-08-17T11:22:50.734Z,59.10
2022-08-17T11:25:23.025Z,58.96
2022-08-17T11:28:06.335Z,58.78
2022-08-17T11:30:50.764Z,58.67
2022-08-17T11:33:59.212Z,58.47
2022-08-17T11:36:40.029Z,58.30
2022-08-17T11:39:43.802Z,58.27
2022-08-17T11:42:28.359Z,58.13
2022-08-17T11:44:59.745Z,58.02
2022-08-17T11:48:23.572Z,58.07
2022-08-17T11:51:12.671Z,58.12
2022-08-17T11:54:34.791Z,57.78
2022-08-17T11:57:43.065Z,57.27
2022-08-17T12:00:57.780Z,57.42
2022-08-17T12:03:54.166Z,57.26
2022-08-17T12:06:45.954Z,57.33
2022-08-17T12:09:20.964Z,57.15
2022-08-17T12:12:12.361Z,57.13
2022-08-17T12:17:42.889Z,57.25
2022-08-17T12:20:17.242Z,56.95
2022-08-17T12:22:57.650Z,56.65
2022-08-17T12:25:37.211Z,56.44
2022-08-17T12:28:20.157Z,56.38
2022-08-17T12:30:52.332Z,56.38
2022-08-17T12:33:25.519Z,56.47
2022-08-17T12:36:03.042Z,56.61
2022-08-17T12:38:34.818Z,56.50
2022-08-17T12:41:23.142Z,56.57
2022-08-17T12:44:02.189Z,56.38
2022-08-17T12:46:45.762Z,55.82
2022-08-17T12:49:18.165Z,55.92
2022-08-17T12:51:48.977Z,55.84
2022-08-17T12:54:29.130Z,55.75
2022-08-17T12:57:06.098Z,56.00
2022-08-17T12:59:35.518Z,55.59
2022-08-17T13:02:05.694Z,55.65
2022-08-17T13:04:34.878Z,55.60
2022-08-17T13:07:03.988Z,55.72
2022-08-17T13:09:36.070Z,55.65
2022-08-17T13:12:11.285Z,55.75
2022-08-17T13:14:47.018Z,55.56
2022-08-17T13:17:28.600Z,55.31
2022-08-17T13:19:58.465Z,55.30
2022-08-17T13:22:30.551Z,55.39
2022-08-17T13:25:04.093Z,55.25
2022-08-17T13:27:38.351Z,55.16
2022-08-17T13:30:13.033Z,55.07
2022-08-17T13:32:47.234Z,54.38
2022-08-17T13:35:41.030Z,54.36
2022-08-17T13:38:13.647Z,54.42
2022-08-17T13:40:49.302Z,54.58
2022-08-17T13:43:45.756Z,54.49
2022-08-17T13:46:22.201Z,54.84
2022-08-17T13:49:01.836Z,55.21
2022-08-17T13:51:35.300Z,55.85
2022-08-17T13:54:26.758Z,56.46
2022-08-17T13:57:08.042Z,57.38
2022-08-17T13:59:54.945Z,57.68
2022-08-17T14:02:28.552Z,58.21
2022-08-17T14:05:00.565Z,57.61
2022-08-17T14:07:37.325Z,57.39
2022-08-17T14:10:12.757Z,56.55
2022-08-17T14:12:45.693Z,55.95
2022-08-17T14:15:20.551Z,55.76
2022-08-17T14:17:50.336Z,55.70
2022-08-17T14:20:21.602Z,54.88
2022-08-17T14:22:53.491Z,54.70
2022-08-17T14:25:30.263Z,53.73
2022-08-17T14:28:00.068Z,53.87
2022-08-17T14:30:32.319Z,53.50
2022-08-17T14:33:02.266Z,53.67
2022-08-17T14:35:31.522Z,53.08
2022-08-17T14:38:02.191Z,52.35
2022-08-17T14:40:33.472Z,52.10
2022-08-17T14:43:02.691Z,51.74
2022-08-17T14:45:33.684Z,50.76
2022-08-17T14:48:07.592Z,51.06
2022-08-17T14:50:40.689Z,49.78
2022-08-17T14:53:12.462Z,49.81
2022-08-17T14:55:41.589Z,49.11
2022-08-17T14:58:11.262Z,48.92
2022-08-17T15:00:43.641Z,48.55
2022-08-17T15:03:14.530Z,48.60
2022-08-17T15:05:44.316Z,48.50
2022-08-17T15:08:13.946Z,48.26
2022-08-17T15:10:44.817Z,47.78
2022-08-17T15:13:20.744Z,47.26
2022-08-17T15:15:52.570Z,47.65
2022-08-17T15:18:21.833Z,47.49
2022-08-17T15:20:52.805Z,47.30
2022-08-17T15:23:26.225Z,44.89
2022-08-17T15:25:56.370Z,45.55
2022-08-17T15:28:25.589Z,45.92
2022-08-17T15:30:56.253Z,45.67
2022-08-17T15:33:30.284Z,45.89
2022-08-17T15:36:01.443Z,45.75
2022-08-17T15:38:34.160Z,45.86
2022-08-17T15:41:04.304Z,46.16
2022-08-17T15:43:34.744Z,45.67
2022-08-17T15:46:10.514Z,44.86
2022-08-17T15:48:44.634Z,44.94
2022-08-17T15:51:17.832Z,44.84
2022-08-17T15:53:50.327Z,44.82
2022-08-17T15:56:20.121Z,44.95
2022-08-17T15:58:50.596Z,43.78
2022-08-17T16:03:01.249Z,44.41
2022-08-17T16:04:26.667Z,44.41
2022-08-17T16:07:00.022Z,44.19
2022-08-17T16:09:29.656Z,44.44
2022-08-17T16:11:58.961Z,43.84
2022-08-17T16:14:32.392Z,43.79
2022-08-17T16:17:38.935Z,43.17
2022-08-17T16:19:57.112Z,43.46
2022-08-17T16:22:33.597Z,43.22
2022-08-17T16:25:07.542Z,43.10
2022-08-17T16:27:37.054Z,43.16
2022-08-17T16:30:12.508Z,42.98
2022-08-17T16:32:49.314Z,42.94
2022-08-17T16:35:20.523Z,42.71
2022-08-17T16:37:51.306Z,42.68
2022-08-17T16:40:21.061Z,42.41
2022-08-17T16:42:51.514Z,42.68
2022-08-17T16:45:26.022Z,41.98
2022-08-17T16:48:01.555Z,42.50
2022-08-17T16:50:32.068Z,41.84
2022-08-17T16:53:06.644Z,42.21
2022-08-17T16:55:36.779Z,41.99
2022-08-17T16:58:08.844Z,41.93
2022-08-17T17:00:39.341Z,42.16
2022-08-17T17:03:19.393Z,42.25
2022-08-17T17:06:08.322Z,42.16
2022-08-17T17:08:44.611Z,42.03
2022-08-17T17:11:19.381Z,41.73
2022-08-17T17:13:54.744Z,41.97
2022-08-17T17:16:33.133Z,41.97
2022-08-17T17:19:11.993Z,42.23
2022-08-17T17:21:48.926Z,42.07
2022-08-17T17:24:28.817Z,42.48
2022-08-17T17:27:13.654Z,42.45
2022-08-17T17:29:56.625Z,42.64
2022-08-17T17:32:37.965Z,42.34
2022-08-17T17:35:16.476Z,42.81
2022-08-17T17:37:47.978Z,42.49
2022-08-17T17:40:23.139Z,42.69
2022-08-17T17:42:55.831Z,42.80
2022-08-17T17:45:31.391Z,42.77
2022-08-17T17:48:00.965Z,42.92
2022-08-17T17:50:38.137Z,43.11
2022-08-17T17:53:11.362Z,43.19
2022-08-17T17:56:01.002Z,43.28
2022-08-17T17:58:42.856Z,43.42
2022-08-17T18:01:26.885Z,43.48
2022-08-17T18:04:20.615Z,43.58
2022-08-17T18:07:17.923Z,43.59
2022-08-17T18:10:04.114Z,43.85
2022-08-17T18:12:41.717Z,43.93
2022-08-17T18:15:31.478Z,43.99
2022-08-17T18:18:06.718Z,43.83
2022-08-17T18:20:46.610Z,43.89
2022-08-17T18:23:28.627Z,44.03
2022-08-17T18:25:59.497Z,44.04
2022-08-17T18:28:32.955Z,44.45
2022-08-17T18:31:09.581Z,44.56
2022-08-17T18:33:43.321Z,44.33
2022-08-17T18:36:13.183Z,44.38
2022-08-17T18:38:45.437Z,44.55
2022-08-17T18:41:30.600Z,44.90
2022-08-17T18:44:03.015Z,45.06
2022-08-17T18:46:35.437Z,44.71
2022-08-17T18:49:10.564Z,44.86
2022-08-17T18:51:43.181Z,45.24
2022-08-17T18:54:22.738Z,45.25
2022-08-17T18:56:57.372Z,45.33
2022-08-17T18:59:36.362Z,45.61
2022-08-17T19:02:44.691Z,45.82
2022-08-17T19:05:29.725Z,45.78
2022-08-17T19:08:19.726Z,46.07
2022-08-17T19:10:53.814Z,46.11
2022-08-17T19:13:29.660Z,46.28
2022-08-17T19:16:14.010Z,46.41
2022-08-17T19:18:49.913Z,46.28
2022-08-17T19:21:24.945Z,46.40
2022-08-17T19:24:00.394Z,46.54
2022-08-17T19:26:53.954Z,46.36
2022-08-17T19:29:31.054Z,46.54
2022-08-17T19:32:01.221Z,46.83
2022-08-17T19:34:34.475Z,46.91
2022-08-17T19:37:10.928Z,46.94
2022-08-17T19:39:51.123Z,47.24
2022-08-17T19:42:42.502Z,47.37
2022-08-17T19:45:20.809Z,47.11
2022-08-17T19:47:55.539Z,47.86
2022-08-17T19:50:38.531Z,47.45
2022-08-17T19:53:18.553Z,47.93
2022-08-17T19:55:55.142Z,47.93
2022-08-17T19:58:41.258Z,48.48
2022-08-17T20:01:20.707Z,48.56
2022-08-17T20:03:59.322Z,48.43
2022-08-17T20:06:34.307Z,48.66
2022-08-17T20:09:14.926Z,48.91
2022-08-17T20:11:49.494Z,48.92
2022-08-17T20:14:23.136Z,49.14
2022-08-17T20:16:52.661Z,48.93
2022-08-17T20:19:43.341Z,49.16
2022-08-17T20:22:18.778Z,49.15
2022-08-17T20:24:55.528Z,49.07
2022-08-17T20:27:31.678Z,49.17
2022-08-17T20:30:10.534Z,49.33
2022-08-17T20:32:55.479Z,49.26
2022-08-17T20:35:28.967Z,49.38
2022-08-17T20:38:02.223Z,49.61
2022-08-17T20:40:35.279Z,49.94
2022-08-17T20:43:51.248Z,49.87
2022-08-17T20:46:46.318Z,50.10
2022-08-17T20:49:23.984Z,50.21
2022-08-17T20:52:01.529Z,50.28
2022-08-17T20:54:48.307Z,50.80
2022-08-17T20:57:48.874Z,50.71
2022-08-17T21:00:47.181Z,50.86
2022-08-17T21:03:50.812Z,50.93
2022-08-17T21:06:26.146Z,51.44
2022-08-17T21:08:59.148Z,51.95
2022-08-17T21:12:04.423Z,52.00
2022-08-17T21:14:58.097Z,52.08
2022-08-17T21:17:50.189Z,52.05
2022-08-17T21:20:33.398Z,52.17
2022-08-17T21:23:23.333Z,52.44
2022-08-17T21:26:23.633Z,52.67
2022-08-17T21:29:30.014Z,53.04
2022-08-17T21:32:24.148Z,52.93
2022-08-17T21:35:25.165Z,52.79
2022-08-17T21:38:04.419Z,52.96
2022-08-17T21:40:35.099Z,52.95
2022-08-17T21:43:22.859Z,52.96
2022-08-17T21:46:04.423Z,52.87
2022-08-17T21:48:43.285Z,52.95
2022-08-17T21:51:18.724Z,52.89
2022-08-17T21:53:51.680Z,53.28
2022-08-17T21:56:28.480Z,53.67
2022-08-17T21:59:02.933Z,53.71
2022-08-17T22:01:35.930Z,53.56
2022-08-17T22:04:19.005Z,53.49
2022-08-17T22:06:57.308Z,53.78
2022-08-17T22:09:31.561Z,53.42
2022-08-17T22:12:05.759Z,53.60
2022-08-17T22:14:52.936Z,53.88
2022-08-17T22:17:26.169Z,53.50
2022-08-17T22:19:59.018Z,53.90
2022-08-17T22:22:56.040Z,54.00
2022-08-17T22:25:27.727Z,54.13
2022-08-17T22:28:00.297Z,54.36
2022-08-17T22:30:40.160Z,53.84
2022-08-17T22:33:41.592Z,53.77
2022-08-17T22:36:30.172Z,54.34
2022-08-17T22:39:01.619Z,54.44
2022-08-17T22:41:39.179Z,54.72
2022-08-17T22:44:17.639Z,54.34
2022-08-17T22:46:59.047Z,54.84
2022-08-17T22:49:32.918Z,55.06
2022-08-17T22:52:09.624Z,54.76
2022-08-17T22:54:56.223Z,54.78
2022-08-17T22:57:45.145Z,54.98
2022-08-17T23:00:35.617Z,54.84
2022-08-17T23:03:15.401Z,55.35
2022-08-17T23:05:47.474Z,55.39
2022-08-17T23:08:21.440Z,55.49
2022-08-17T23:10:50.933Z,55.83
2022-08-17T23:13:21.769Z,55.77
2022-08-17T23:15:52.335Z,55.47
2022-08-17T23:18:23.550Z,55.56
2022-08-17T23:20:52.775Z,55.78
2022-08-17T23:23:23.998Z,55.50
2022-08-17T23:25:54.461Z,55.46
2022-08-17T23:28:25.227Z,55.23
2022-08-17T23:30:54.413Z,55.50
2022-08-17T23:33:30.069Z,55.61
2022-08-17T23:35:59.788Z,55.73
2022-08-17T23:38:29.240Z,55.77
2022-08-17T23:41:01.595Z,55.54
2022-08-17T23:43:32.769Z,55.95
2022-08-17T23:46:04.028Z,55.53
2022-08-17T23:48:35.789Z,55.29
2022-08-17T23:51:10.619Z,55.29
2022-08-17T23:53:44.184Z,55.06
2022-08-17T23:56:13.429Z,55.26
2022-08-17T23:58:45.169Z,55.32
